createdAt,value
2018-03-19T00:00:57.527Z,-2.10
2018-03-19T00:03:25.177Z,-2.00
2018-03-19T00:05:52.719Z,-2.10
2018-03-19T00:08:21.070Z,-2.00
2018-03-19T00:10:48.631Z,-2.00
2018-03-19T00:13:16.195Z,-1.90
2018-03-19T00:15:43.740Z,-1.90
2018-03-19T00:18:11.315Z,-2.00
2018-03-19T00:20:38.861Z,-2.00
2018-03-19T00:23:06.435Z,-1.90
2018-03-19T00:25:33.988Z,-1.80
2018-03-19T00:28:01.563Z,-1.80
2018-03-19T00:30:29.106Z,-1.90
2018-03-19T00:32:56.674Z,-2.00
2018-03-19T00:35:24.219Z,-2.00
2018-03-19T00:37:51.779Z,-1.90
2018-03-19T00:40:19.342Z,-1.90
2018-03-19T00:42:46.874Z,-1.90
2018-03-19T00:45:14.438Z,-1.90
2018-03-19T00:47:42.102Z,-2.00
2018-03-19T00:50:09.674Z,-2.00
2018-03-19T00:52:37.217Z,-2.20
2018-03-19T00:55:04.780Z,-2.10
2018-03-19T00:57:32.318Z,-2.10
2018-03-19T00:59:59.906Z,-2.00
2018-03-19T01:02:27.450Z,-2.00
2018-03-19T01:04:55.015Z,-2.10
2018-03-19T01:07:22.556Z,-2.00
2018-03-19T01:09:50.142Z,-2.10
2018-03-19T01:12:17.686Z,-2.10
2018-03-19T01:14:45.252Z,-2.10
2018-03-19T01:17:12.799Z,-2.10
2018-03-19T01:22:34.672Z,-2.10
2018-03-19T01:25:02.246Z,-2.10
2018-03-19T01:27:29.790Z,-2.20
2018-03-19T01:29:57.363Z,-2.20
2018-03-19T01:32:24.946Z,-2.10
2018-03-19T01:34:52.534Z,-2.10
2018-03-19T01:37:20.084Z,-2.10
2018-03-19T01:39:48.394Z,-2.10
2018-03-19T01:42:15.966Z,-2.20
2018-03-19T01:44:43.515Z,-2.20
2018-03-19T01:47:11.084Z,-2.20
2018-03-19T01:49:38.647Z,-2.20
2018-03-19T01:52:06.258Z,-2.30
2018-03-19T01:54:34.575Z,-2.20
2018-03-19T01:57:02.147Z,-2.20
2018-03-19T01:59:29.711Z,-2.20
2018-03-19T02:01:57.284Z,-2.30
2018-03-19T02:04:24.835Z,-2.30
2018-03-19T02:06:52.399Z,-2.20
2018-03-19T02:09:19.958Z,-2.10
2018-03-19T02:11:47.522Z,-2.30
2018-03-19T02:14:15.059Z,-2.30
2018-03-19T02:16:42.619Z,-2.20
2018-03-19T02:19:10.191Z,-2.30
2018-03-19T02:21:37.767Z,-2.20
2018-03-19T02:24:05.362Z,-2.30
2018-03-19T02:26:33.671Z,-2.30
2018-03-19T02:29:01.243Z,-2.30
2018-03-19T02:31:28.817Z,-2.30
2018-03-19T02:33:56.391Z,-2.20
2018-03-19T02:36:23.938Z,-2.20
2018-03-19T02:38:52.272Z,-2.20
2018-03-19T02:41:19.811Z,-2.20
2018-03-19T02:43:48.146Z,-2.10
2018-03-19T02:46:15.695Z,-2.10
2018-03-19T02:48:43.279Z,-2.20
2018-03-19T02:51:10.822Z,-2.20
2018-03-19T02:53:38.395Z,-2.30
2018-03-19T02:56:05.938Z,-2.40
2018-03-19T02:58:33.525Z,-2.40
2018-03-19T03:01:01.108Z,-2.30
2018-03-19T03:03:29.451Z,-2.20
2018-03-19T03:05:57.002Z,-2.20
2018-03-19T03:08:25.307Z,-2.40
2018-03-19T03:10:52.871Z,-2.40
2018-03-19T03:13:20.406Z,-2.40
2018-03-19T03:15:47.974Z,-2.40
2018-03-19T03:18:15.542Z,-2.40
2018-03-19T03:20:43.113Z,-2.50
2018-03-19T03:23:10.659Z,-2.40
2018-03-19T03:25:38.230Z,-2.50
2018-03-19T03:28:05.771Z,-2.60
2018-03-19T03:30:33.374Z,-2.50
2018-03-19T03:33:01.682Z,-2.40
2018-03-19T03:35:29.251Z,-2.40
2018-03-19T03:37:56.799Z,-2.40
2018-03-19T03:40:24.361Z,-2.40
2018-03-19T03:42:51.908Z,-2.40
2018-03-19T03:45:19.478Z,-2.40
2018-03-19T03:47:47.016Z,-2.60
2018-03-19T03:50:14.597Z,-2.40
2018-03-19T03:52:42.137Z,-2.50
2018-03-19T03:55:09.711Z,-2.50
2018-03-19T03:57:37.260Z,-2.50
2018-03-19T04:00:04.797Z,-2.50
2018-03-19T04:02:33.129Z,-2.60
2018-03-19T04:05:00.668Z,-2.60
2018-03-19T04:07:28.234Z,-2.50
2018-03-19T04:09:55.782Z,-2.60
2018-03-19T04:12:23.344Z,-2.60
2018-03-19T04:14:50.891Z,-2.50
2018-03-19T04:17:19.222Z,-2.50
2018-03-19T04:19:46.767Z,-2.50
2018-03-19T04:22:14.333Z,-2.50
2018-03-19T04:24:41.871Z,-2.40
2018-03-19T04:27:09.434Z,-2.50
2018-03-19T04:29:37.009Z,-2.60
2018-03-19T04:32:04.566Z,-2.60
2018-03-19T04:34:32.109Z,-2.50
2018-03-19T04:36:59.678Z,-2.70
2018-03-19T04:39:27.228Z,-2.60
2018-03-19T04:41:54.799Z,-2.70
2018-03-19T04:44:22.338Z,-2.60
2018-03-19T04:46:49.886Z,-2.50
2018-03-19T04:49:18.214Z,-2.60
2018-03-19T04:51:45.755Z,-2.60
2018-03-19T04:54:13.325Z,-2.50
2018-03-19T04:56:40.880Z,-2.40
2018-03-19T04:59:08.451Z,-2.60
2018-03-19T05:01:35.994Z,-2.50
2018-03-19T05:04:03.566Z,-2.60
2018-03-19T05:06:31.878Z,-2.80
2018-03-19T05:08:59.455Z,-2.80
2018-03-19T05:11:27.766Z,-2.50
2018-03-19T05:13:55.331Z,-2.60
2018-03-19T05:16:22.878Z,-2.50
2018-03-19T05:18:50.451Z,-2.60
2018-03-19T05:21:18.003Z,-2.70
2018-03-19T05:23:45.570Z,-2.70
2018-03-19T05:26:13.132Z,-2.70
2018-03-19T05:28:40.699Z,-2.70
2018-03-19T05:31:08.250Z,-2.70
2018-03-19T05:33:35.834Z,-2.70
2018-03-19T05:36:03.374Z,-2.70
2018-03-19T05:38:30.919Z,-2.70
2018-03-19T05:40:58.498Z,-2.60
2018-03-19T05:43:26.049Z,-2.60
2018-03-19T05:45:53.622Z,-2.70
2018-03-19T05:48:21.175Z,-2.60
2018-03-19T05:50:48.752Z,-2.50
2018-03-19T05:53:16.288Z,-2.60
2018-03-19T05:55:43.878Z,-2.70
2018-03-19T05:58:11.422Z,-2.70
2018-03-19T06:00:38.982Z,-2.60
2018-03-19T06:03:06.523Z,-2.50
2018-03-19T06:05:34.095Z,-2.70
2018-03-19T06:08:01.626Z,-2.60
2018-03-19T06:10:29.243Z,-2.60
2018-03-19T06:12:56.784Z,-2.70
2018-03-19T06:15:24.328Z,-2.70
2018-03-19T06:17:51.899Z,-2.50
2018-03-19T06:20:33.318Z,-2.50
2018-03-19T06:23:01.028Z,-2.60
2018-03-19T06:25:28.858Z,-2.60
2018-03-19T06:27:56.482Z,-2.60
2018-03-19T06:30:24.024Z,-2.50
2018-03-19T06:32:51.679Z,-2.50
2018-03-19T06:57:12.441Z,-2.50
2018-03-19T06:59:39.985Z,-2.30
2018-03-19T07:02:07.562Z,-2.30
2018-03-19T07:04:35.099Z,-2.50
2018-03-19T07:07:02.638Z,-2.40
2018-03-19T07:09:30.970Z,-2.20
2018-03-19T07:11:58.511Z,-2.20
2018-03-19T07:14:26.079Z,-2.20
2018-03-19T07:16:53.626Z,-2.10
2018-03-19T07:19:21.182Z,-1.90
2018-03-19T07:21:48.734Z,-2.10
2018-03-19T07:24:16.303Z,-2.00
2018-03-19T07:26:43.851Z,-1.90
2018-03-19T07:29:11.419Z,-1.80
2018-03-19T07:31:38.962Z,-1.80
2018-03-19T07:34:07.301Z,-1.80
2018-03-19T07:36:34.847Z,-1.80
2018-03-19T07:39:02.419Z,-1.80
2018-03-19T07:41:29.963Z,-1.60
2018-03-19T07:43:57.575Z,-1.50
2018-03-19T07:46:25.094Z,-1.30
2018-03-19T07:48:52.670Z,-1.30
2018-03-19T07:51:20.221Z,-1.10
2018-03-19T07:53:47.789Z,-1.60
2018-03-19T07:56:16.110Z,-1.40
2018-03-19T07:58:43.657Z,-1.40
2018-03-19T08:01:11.994Z,-1.20
2018-03-19T08:03:39.543Z,-1.20
2018-03-19T08:06:07.113Z,-1.00
2018-03-19T08:08:34.655Z,-1.10
2018-03-19T08:11:02.234Z,-1.20
2018-03-19T08:13:29.810Z,-1.30
2018-03-19T08:15:57.383Z,-1.20
2018-03-19T08:18:25.691Z,-0.90
2018-03-19T08:20:53.268Z,-0.90
2018-03-19T08:23:20.808Z,-1.00
2018-03-19T08:25:48.382Z,-1.00
2018-03-19T08:28:15.926Z,-0.70
2018-03-19T08:30:43.494Z,-1.20
2018-03-19T08:33:11.038Z,-1.40
2018-03-19T08:35:38.604Z,-1.20
2018-03-19T08:38:06.144Z,-1.30
2018-03-19T08:40:34.482Z,-0.90
2018-03-19T08:43:02.027Z,-0.90
2018-03-19T08:45:29.596Z,-0.80
2018-03-19T08:47:57.161Z,-0.70
2018-03-19T08:50:24.709Z,-0.70
2018-03-19T08:52:52.272Z,-0.90
2018-03-19T08:55:19.819Z,-0.80
2018-03-19T08:57:47.390Z,-1.30
2018-03-19T09:00:14.950Z,-1.30
2018-03-19T09:02:42.527Z,-1.20
2018-03-19T09:05:10.082Z,-0.90
2018-03-19T09:07:37.651Z,-0.80
2018-03-19T09:10:05.207Z,-0.70
2018-03-19T09:12:32.800Z,-0.90
2018-03-19T09:15:01.110Z,-0.30
2018-03-19T09:17:28.678Z,-0.30
2018-03-19T09:19:56.230Z,-0.50
2018-03-19T09:22:23.799Z,-0.50
2018-03-19T09:24:51.323Z,-0.20
2018-03-19T09:27:19.642Z,0.20
2018-03-19T09:29:47.180Z,0.10
2018-03-19T09:32:14.737Z,0.50
2018-03-19T09:34:42.269Z,0.50
2018-03-19T09:37:10.609Z,0.50
2018-03-19T09:39:38.143Z,0.50
2018-03-19T09:42:05.678Z,0.80
2018-03-19T09:44:34.014Z,0.60
2018-03-19T09:47:01.584Z,0.60
2018-03-19T09:49:29.132Z,1.00
2018-03-19T09:51:56.674Z,1.00
2018-03-19T09:54:24.255Z,0.90
2018-03-19T09:56:51.773Z,1.00
2018-03-19T09:59:19.330Z,0.50
2018-03-19T10:01:46.862Z,0.80
2018-03-19T10:04:14.427Z,1.40
2018-03-19T10:06:42.734Z,1.60
2018-03-19T10:09:10.290Z,1.60
2018-03-19T10:11:37.823Z,1.30
2018-03-19T10:14:06.146Z,1.60
2018-03-19T10:16:33.675Z,1.50
2018-03-19T10:19:01.237Z,1.80
2018-03-19T10:21:28.807Z,1.70
2018-03-19T10:23:57.111Z,1.80
2018-03-19T10:26:25.406Z,1.80
2018-03-19T10:28:52.963Z,1.80
2018-03-19T10:31:20.497Z,1.80
2018-03-19T10:33:48.059Z,1.70
2018-03-19T10:36:15.594Z,1.40
2018-03-19T10:38:43.131Z,2.00
2018-03-19T10:41:11.461Z,1.90
2018-03-19T10:43:38.996Z,1.90
2018-03-19T10:46:06.562Z,1.90
2018-03-19T10:48:34.089Z,2.10
2018-03-19T10:51:02.419Z,2.10
2018-03-19T10:53:29.950Z,2.10
2018-03-19T10:55:57.508Z,2.00
2018-03-19T10:58:25.046Z,2.60
2018-03-19T11:00:53.374Z,2.60
2018-03-19T11:03:26.627Z,2.60
2018-03-19T11:05:55.864Z,3.20
2018-03-19T11:08:28.963Z,3.20
2018-03-19T11:10:56.531Z,3.60
2018-03-19T11:13:24.059Z,3.90
2018-03-19T11:15:51.613Z,3.90
2018-03-19T11:18:19.142Z,3.90
2018-03-19T11:20:47.471Z,3.80
2018-03-19T11:23:15.002Z,3.70
2018-03-19T11:25:42.573Z,3.30
2018-03-19T11:28:10.106Z,3.20
2018-03-19T11:30:38.435Z,3.30
2018-03-19T11:33:05.962Z,3.30
2018-03-19T11:35:33.520Z,3.20
2018-03-19T11:38:01.054Z,3.30
2018-03-19T11:40:29.357Z,3.10
2018-03-19T11:42:56.926Z,3.10
2018-03-19T11:45:24.455Z,2.80
2018-03-19T11:47:52.783Z,2.80
2018-03-19T11:50:20.318Z,2.80
2018-03-19T11:52:47.911Z,3.00
2018-03-19T11:55:15.418Z,3.10
2018-03-19T11:57:43.747Z,2.80
2018-03-19T12:00:11.288Z,2.80
2018-03-19T12:02:38.846Z,3.30
2018-03-19T12:05:06.382Z,3.30
2018-03-19T12:07:33.943Z,3.40
2018-03-19T12:10:02.253Z,2.90
2018-03-19T12:12:29.816Z,2.90
2018-03-19T12:14:57.347Z,3.20
2018-03-19T12:17:24.886Z,3.30
2018-03-19T12:19:53.209Z,3.60
2018-03-19T12:22:20.738Z,3.50
2018-03-19T12:24:48.303Z,3.40
2018-03-19T12:27:15.837Z,3.40
2018-03-19T12:29:44.162Z,3.50
2018-03-19T12:32:11.698Z,3.50
2018-03-19T12:34:39.258Z,3.60
2018-03-19T12:37:06.797Z,3.70
2018-03-19T12:39:35.135Z,3.90
2018-03-19T12:42:02.662Z,3.80
2018-03-19T12:44:30.225Z,3.70
2018-03-19T12:46:57.754Z,4.00
2018-03-19T12:49:26.091Z,3.70
2018-03-19T12:51:53.617Z,3.70
2018-03-19T12:54:21.174Z,3.50
2018-03-19T12:56:48.706Z,3.60
2018-03-19T12:59:17.032Z,3.80
2018-03-19T13:01:44.563Z,3.80
2018-03-19T13:04:12.123Z,4.10
2018-03-19T13:06:39.663Z,3.90
2018-03-19T13:09:07.984Z,3.90
2018-03-19T13:11:35.543Z,3.90
2018-03-19T13:14:03.083Z,4.10
2018-03-19T13:16:30.648Z,4.10
2018-03-19T13:18:58.187Z,4.20
2018-03-19T13:21:26.509Z,4.40
2018-03-19T13:23:54.040Z,4.40
2018-03-19T13:26:21.602Z,4.60
2018-03-19T13:28:49.143Z,4.60
2018-03-19T13:31:17.466Z,4.30
2018-03-19T13:33:44.994Z,4.30
2018-03-19T13:36:12.562Z,4.20
2018-03-19T13:38:40.095Z,3.90
2018-03-19T13:41:08.422Z,3.80
2018-03-19T13:43:35.964Z,3.80
2018-03-19T13:46:03.501Z,4.00
2018-03-19T13:48:31.824Z,4.20
2018-03-19T13:50:59.361Z,4.20
2018-03-19T13:53:26.977Z,4.30
2018-03-19T13:55:54.470Z,4.40
2018-03-19T13:58:22.035Z,4.40
2018-03-19T14:00:49.572Z,4.20
2018-03-19T14:03:17.905Z,4.10
2018-03-19T14:05:45.445Z,4.10
2018-03-19T14:08:13.010Z,4.20
2018-03-19T14:10:40.556Z,4.10
2018-03-19T14:13:08.112Z,4.20
2018-03-19T14:15:35.647Z,4.20
2018-03-19T14:18:03.978Z,4.00
2018-03-19T14:20:31.505Z,4.00
2018-03-19T14:22:59.067Z,4.30
2018-03-19T14:25:26.602Z,4.20
2018-03-19T14:27:54.984Z,4.30
2018-03-19T14:30:22.485Z,4.30
2018-03-19T14:32:50.063Z,4.30
2018-03-19T14:35:17.602Z,4.30
2018-03-19T14:37:45.145Z,4.30
2018-03-19T14:40:12.698Z,4.40
2018-03-19T14:42:40.243Z,4.60
2018-03-19T14:45:08.566Z,4.60
2018-03-19T14:47:36.099Z,4.50
2018-03-19T14:50:03.654Z,4.70
2018-03-19T14:52:31.192Z,4.70
2018-03-19T14:54:59.515Z,5.20
2018-03-19T14:57:27.049Z,5.20
2018-03-19T14:59:54.617Z,4.80
2018-03-19T15:02:22.150Z,4.40
2018-03-19T15:04:50.478Z,3.90
2018-03-19T15:07:18.010Z,3.80
2018-03-19T15:09:45.570Z,3.30
2018-03-19T15:12:13.106Z,3.20
2018-03-19T15:14:41.443Z,2.80
2018-03-19T15:17:08.978Z,2.80
2018-03-19T15:19:36.543Z,2.70
2018-03-19T15:22:04.091Z,2.60
2018-03-19T15:24:31.645Z,2.80
2018-03-19T15:26:59.178Z,2.90
2018-03-19T15:29:27.489Z,2.90
2018-03-19T15:31:55.062Z,2.90
2018-03-19T15:34:22.599Z,2.90
2018-03-19T15:36:50.151Z,3.10
2018-03-19T15:39:18.450Z,3.00
2018-03-19T15:41:46.005Z,3.00
2018-03-19T15:44:13.546Z,2.90
2018-03-19T15:46:41.870Z,2.90
2018-03-19T15:49:09.408Z,2.80
2018-03-19T15:51:36.967Z,2.70
2018-03-19T15:54:04.500Z,2.30
2018-03-19T15:56:32.818Z,2.30
2018-03-19T15:59:00.356Z,2.30
2018-03-19T16:01:27.914Z,2.20
2018-03-19T16:03:55.447Z,2.20
2018-03-19T16:06:23.782Z,2.10
2018-03-19T16:08:51.330Z,2.10
2018-03-19T16:11:18.885Z,1.90
2018-03-19T16:13:46.438Z,2.00
2018-03-19T16:16:14.010Z,1.90
2018-03-19T16:18:41.554Z,1.80
2018-03-19T16:21:09.111Z,1.70
2018-03-19T16:23:36.643Z,1.50
2018-03-19T16:26:04.991Z,1.60
2018-03-19T16:28:32.526Z,1.60
2018-03-19T16:31:00.059Z,1.50
2018-03-19T16:33:27.618Z,1.30
2018-03-19T16:35:55.926Z,1.20
2018-03-19T16:38:23.486Z,1.20
2018-03-19T16:40:51.020Z,1.10
2018-03-19T16:43:18.574Z,1.00
2018-03-19T16:45:46.111Z,1.00
2018-03-19T16:48:13.671Z,0.70
2018-03-19T16:50:41.210Z,0.60
2018-03-19T16:53:08.770Z,0.60
2018-03-19T16:55:36.314Z,0.60
2018-03-19T16:58:03.875Z,0.60
2018-03-19T17:00:31.408Z,0.40
2018-03-19T17:02:58.970Z,0.40
2018-03-19T17:05:26.506Z,0.50
2018-03-19T17:07:54.066Z,0.30
2018-03-19T17:10:22.366Z,0.40
2018-03-19T17:12:49.954Z,0.30
2018-03-19T17:15:17.483Z,0.30
2018-03-19T17:17:45.022Z,0.30
2018-03-19T17:20:12.619Z,0.30
2018-03-19T17:22:40.167Z,0.20
2018-03-19T17:25:07.738Z,0.20
2018-03-19T17:27:35.270Z,0.10
2018-03-19T17:30:02.834Z,0.10
2018-03-19T17:32:30.374Z,0.10
2018-03-19T17:34:58.706Z,0.10
2018-03-19T17:37:26.247Z,0.10
2018-03-19T17:39:53.823Z,0.10
2018-03-19T17:42:21.354Z,0.00
2018-03-19T17:44:48.954Z,-0.10
2018-03-19T17:47:16.474Z,-0.10
2018-03-19T17:49:44.051Z,-0.10
2018-03-19T17:52:11.635Z,-0.10
2018-03-19T17:54:39.198Z,0.10
2018-03-19T17:57:06.735Z,0.00
2018-03-19T17:59:34.543Z,-0.10
2018-03-19T18:02:02.895Z,-0.30
2018-03-19T18:04:30.499Z,-0.30
2018-03-19T18:06:58.047Z,-0.30
2018-03-19T18:09:26.364Z,-0.30
2018-03-19T18:11:53.956Z,-0.30
2018-03-19T18:14:21.511Z,-0.30
2018-03-19T18:16:49.074Z,-0.30
2018-03-19T18:19:16.622Z,-0.30
2018-03-19T18:21:44.196Z,-0.30
2018-03-19T18:24:11.742Z,-0.30
2018-03-19T18:26:39.306Z,-0.30
2018-03-19T18:29:06.848Z,-0.30
2018-03-19T18:31:34.414Z,-0.20
2018-03-19T18:34:01.950Z,-0.10
2018-03-19T18:36:29.539Z,-0.10
2018-03-19T18:38:57.094Z,-0.20
2018-03-19T18:41:24.675Z,-0.30
2018-03-19T18:43:52.222Z,-0.20
2018-03-19T18:46:19.753Z,-0.30
2018-03-19T18:48:47.317Z,-0.20
2018-03-19T18:51:14.910Z,-0.30
2018-03-19T18:53:42.453Z,-0.20
2018-03-19T18:56:10.052Z,-0.30
2018-03-19T18:58:38.417Z,-0.20
2018-03-19T19:01:05.963Z,-0.20
2018-03-19T19:03:33.531Z,-0.20
2018-03-19T19:06:01.080Z,-0.30
2018-03-19T19:08:29.414Z,-0.40
2018-03-19T19:10:57.711Z,-0.30
2018-03-19T19:13:25.355Z,-0.30
2018-03-19T19:15:53.654Z,-0.20
2018-03-19T19:18:21.224Z,-0.20
2018-03-19T19:20:48.772Z,-0.20
2018-03-19T19:23:16.346Z,-0.20
2018-03-19T19:25:43.878Z,-0.20
2018-03-19T19:28:11.443Z,-0.20
2018-03-19T19:30:38.980Z,-0.30
2018-03-19T19:33:07.287Z,-0.40
2018-03-19T19:35:34.855Z,-0.40
2018-03-19T19:38:02.407Z,-0.40
2018-03-19T19:40:30.007Z,-0.30
2018-03-19T19:42:57.551Z,-0.30
2018-03-19T19:45:25.122Z,-0.40
2018-03-19T19:47:52.675Z,-0.40
2018-03-19T19:50:20.294Z,-0.40
2018-03-19T19:52:47.840Z,-0.30
2018-03-19T19:55:16.179Z,-0.30
2018-03-19T19:57:43.711Z,-0.30
2018-03-19T20:00:11.271Z,-0.20
2018-03-19T20:02:38.812Z,-0.20
2018-03-19T20:05:07.139Z,-0.30
2018-03-19T20:07:34.682Z,-0.30
2018-03-19T20:10:02.259Z,-0.30
2018-03-19T20:12:29.791Z,-0.20
2018-03-19T20:14:57.414Z,-0.30
2018-03-19T20:17:24.924Z,-0.30
2018-03-19T20:19:52.498Z,-0.20
2018-03-19T20:22:20.039Z,-0.20
2018-03-19T20:24:47.583Z,-0.30
2018-03-19T20:27:15.146Z,-0.20
2018-03-19T20:29:42.686Z,-0.20
2018-03-19T20:32:11.014Z,-0.30
2018-03-19T20:34:38.563Z,-0.30
2018-03-19T20:37:06.130Z,-0.30
2018-03-19T20:39:33.686Z,-0.20
2018-03-19T20:42:01.251Z,-0.30
2018-03-19T20:44:28.794Z,-0.40
2018-03-19T20:46:56.425Z,-0.30
2018-03-19T20:49:23.980Z,-0.30
2018-03-19T20:51:51.554Z,-0.30
2018-03-19T20:54:19.107Z,-0.30
2018-03-19T20:56:47.434Z,-0.30
2018-03-19T20:59:14.978Z,-0.40
2018-03-19T21:01:42.546Z,-0.40
2018-03-19T21:04:10.120Z,-0.50
2018-03-19T21:06:37.687Z,-0.40
2018-03-19T21:09:05.226Z,-0.50
2018-03-19T21:11:32.808Z,-0.60
2018-03-19T21:14:00.351Z,-0.70
2018-03-19T21:16:28.663Z,-0.70
2018-03-19T21:18:57.007Z,-0.80
2018-03-19T21:21:24.554Z,-0.80
2018-03-19T21:23:52.116Z,-0.80
2018-03-19T21:26:19.655Z,-0.70
2018-03-19T21:28:47.223Z,-0.80
2018-03-19T21:31:14.767Z,-0.80
2018-03-19T21:33:42.339Z,-0.90
2018-03-19T21:36:09.885Z,-0.90
2018-03-19T21:38:37.459Z,-1.00
2018-03-19T21:41:05.002Z,-1.00
2018-03-19T21:43:32.647Z,-1.10
2018-03-19T21:46:00.954Z,-1.20
2018-03-19T21:48:28.542Z,-1.20
2018-03-19T21:50:56.085Z,-1.20
2018-03-19T21:53:23.666Z,-1.20
2018-03-19T21:55:51.217Z,-1.30
2018-03-19T21:58:18.818Z,-1.40
2018-03-19T22:00:47.131Z,-1.50
2018-03-19T22:03:14.701Z,-1.50
2018-03-19T22:05:42.247Z,-1.50
2018-03-19T22:08:09.834Z,-1.50
2018-03-19T22:10:37.399Z,-1.60
2018-03-19T22:13:04.944Z,-1.60
2018-03-19T22:15:32.538Z,-1.60
2018-03-19T22:18:00.083Z,-1.70
2018-03-19T22:20:27.663Z,-1.70
2018-03-19T22:22:55.229Z,-1.70
2018-03-19T22:25:22.799Z,-1.70
2018-03-19T22:27:51.111Z,-1.80
2018-03-19T22:30:18.686Z,-1.80
2018-03-19T22:32:46.230Z,-1.80
2018-03-19T22:35:13.794Z,-1.80
2018-03-19T22:37:41.367Z,-1.90
2018-03-19T22:40:08.943Z,-1.90
2018-03-19T22:42:36.486Z,-1.90
2018-03-19T22:45:04.050Z,-2.00
2018-03-19T22:47:32.366Z,-2.00
2018-03-19T22:49:59.934Z,-2.00
2018-03-19T22:52:28.252Z,-2.00
2018-03-19T22:54:55.826Z,-2.10
2018-03-19T22:57:23.393Z,-2.10
2018-03-19T22:59:50.934Z,-2.10
2018-03-19T23:02:18.541Z,-2.10
2018-03-19T23:07:50.103Z,-2.20
2018-03-19T23:10:17.659Z,-2.20
2018-03-19T23:12:45.222Z,-2.30
2018-03-19T23:15:12.767Z,-2.30
2018-03-19T23:17:40.331Z,-2.30
2018-03-19T23:20:07.873Z,-2.30
2018-03-19T23:22:35.476Z,-2.30
2018-03-19T23:25:03.058Z,-2.30
2018-03-19T23:27:31.408Z,-2.40
2018-03-19T23:29:58.982Z,-2.40
2018-03-19T23:32:26.541Z,-2.50
2018-03-19T23:34:54.069Z,-2.50
2018-03-19T23:37:22.414Z,-2.50
2018-03-19T23:39:50.010Z,-2.50
2018-03-19T23:42:17.551Z,-2.50
2018-03-19T23:44:45.125Z,-2.60
2018-03-19T23:47:12.670Z,-2.60
2018-03-19T23:49:40.239Z,-2.70
2018-03-19T23:52:07.815Z,-2.60
2018-03-19T23:54:35.386Z,-2.70
2018-03-19T23:57:02.938Z,-2.80
2018-03-19T23:59:30.498Z,-2.70
